sensor_id;sensor_type;location;lat;lon;timestamp;pressure;altitude;pressure_sealevel;temperature;humidity
50268;BME280;36153;50.960;6.220;2023-05-16T00:01:36;100724.47;;;15.02;66.55
50268;BME280;36153;50.960;6.220;2023-05-16T00:04:37;100729.78;;;14.62;66.91
50268;BME280;36153;50.960;6.220;2023-05-16T00:07:37;100728.94;;;14.75;66.43
50268;BME280;36153;50.960;6.220;2023-05-16T00:10:38;100736.78;;;14.47;66.99
50268;BME280;36153;50.960;6.220;2023-05-16T00:13:38;100733.31;;;14.67;65.91
50268;BME280;36153;50.960;6.220;2023-05-16T00:16:41;100733.31;;;14.68;65.58
50268;BME280;36153;50.960;6.220;2023-05-16T00:19:42;100742.88;;;14.60;65.65
50268;BME280;36153;50.960;6.220;2023-05-16T00:22:43;100733.25;;;14.76;65.43
50268;BME280;36153;50.960;6.220;2023-05-16T00:25:45;100747.25;;;14.67;65.32
50268;BME280;36153;50.960;6.220;2023-05-16T00:28:46;100749.88;;;14.55;65.51
50268;BME280;36153;50.960;6.220;2023-05-16T00:31:46;100748.16;;;14.63;65.41
50268;BME280;36153;50.960;6.220;2023-05-16T00:34:47;100749.88;;;14.10;66.26
50268;BME280;36153;50.960;6.220;2023-05-16T00:37:47;100754.22;;;14.33;65.36
50268;BME280;36153;50.960;6.220;2023-05-16T00:40:47;100748.13;;;14.52;65.09
50268;BME280;36153;50.960;6.220;2023-05-16T00:43:48;100739.38;;;14.30;65.34
50268;BME280;36153;50.960;6.220;2023-05-16T00:46:48;100753.34;;;13.91;65.73
50268;BME280;36153;50.960;6.220;2023-05-16T00:49:49;100753.38;;;14.34;64.75
50268;BME280;36153;50.960;6.220;2023-05-16T00:52:49;100754.25;;;14.39;64.10
50268;BME280;36153;50.960;6.220;2023-05-16T00:55:50;100750.75;;;14.48;63.77
50268;BME280;36153;50.960;6.220;2023-05-16T00:58:50;100755.13;;;14.61;63.00
50268;BME280;36153;50.960;6.220;2023-05-16T01:01:51;100750.75;;;14.46;63.48
50268;BME280;36153;50.960;6.220;2023-05-16T01:04:52;100757.75;;;14.37;64.08
50268;BME280;36153;50.960;6.220;2023-05-16T01:07:52;100763.81;;;14.28;63.90
50268;BME280;36153;50.960;6.220;2023-05-16T01:11:09;100762.09;;;14.21;64.13
50268;BME280;36153;50.960;6.220;2023-05-16T01:17:57;100771.66;;;14.12;63.72
50268;BME280;36153;50.960;6.220;2023-05-16T01:21:03;100769.06;;;14.03;63.69
50268;BME280;36153;50.960;6.220;2023-05-16T01:24:40;100769.97;;;14.30;63.75
50268;BME280;36153;50.960;6.220;2023-05-16T01:27:43;100775.16;;;14.08;63.67
50268;BME280;36153;50.960;6.220;2023-05-16T01:30:44;100783.03;;;14.21;63.46
50268;BME280;36153;50.960;6.220;2023-05-16T01:33:45;100783.91;;;14.44;62.01
50268;BME280;36153;50.960;6.220;2023-05-16T01:37:05;100778.66;;;14.10;63.24
50268;BME280;36153;50.960;6.220;2023-05-16T01:40:12;100778.66;;;14.07;63.19
50268;BME280;36153;50.960;6.220;2023-05-16T01:43:20;100789.09;;;13.98;63.31
50268;BME280;36153;50.960;6.220;2023-05-16T01:46:26;100778.69;;;14.50;61.99
50268;BME280;36153;50.960;6.220;2023-05-16T01:50:15;100787.41;;;14.15;62.22
50268;BME280;36153;50.960;6.220;2023-05-16T01:53:04;100794.34;;;13.95;63.25
50268;BME280;36153;50.960;6.220;2023-05-16T01:56:10;100794.34;;;13.95;63.19
50268;BME280;36153;50.960;6.220;2023-05-16T01:59:14;100801.34;;;14.02;62.55
50268;BME280;36153;50.960;6.220;2023-05-16T02:02:18;100803.91;;;13.93;62.84
50268;BME280;36153;50.960;6.220;2023-05-16T02:05:18;100810.00;;;13.87;62.96
50268;BME280;36153;50.960;6.220;2023-05-16T02:08:19;100810.91;;;13.97;62.13
50268;BME280;36153;50.960;6.220;2023-05-16T02:11:20;100810.06;;;14.13;62.05
50268;BME280;36153;50.960;6.220;2023-05-16T02:14:21;100807.47;;;14.18;61.53
50268;BME280;36153;50.960;6.220;2023-05-16T02:17:21;100813.53;;;13.94;61.64
50268;BME280;36153;50.960;6.220;2023-05-16T02:20:21;100810.09;;;14.07;61.28
50268;BME280;36153;50.960;6.220;2023-05-16T02:23:22;100816.00;;;13.57;62.03
50268;BME280;36153;50.960;6.220;2023-05-16T02:26:22;100830.91;;;13.76;61.39
50268;BME280;36153;50.960;6.220;2023-05-16T02:29:23;100819.56;;;13.77;61.19
50268;BME280;36153;50.960;6.220;2023-05-16T02:32:23;100827.50;;;13.99;60.27
50268;BME280;36153;50.960;6.220;2023-05-16T02:35:24;100834.47;;;13.89;60.58
50268;BME280;36153;50.960;6.220;2023-05-16T02:38:24;100837.88;;;13.76;60.58
50268;BME280;36153;50.960;6.220;2023-05-16T02:41:25;100828.22;;;13.58;60.85
50268;BME280;36153;50.960;6.220;2023-05-16T02:44:25;100843.84;;;13.42;61.23
50268;BME280;36153;50.960;6.220;2023-05-16T02:47:26;100840.44;;;13.56;60.81
50268;BME280;36153;50.960;6.220;2023-05-16T02:50:26;100846.47;;;13.42;60.54
50268;BME280;36153;50.960;6.220;2023-05-16T02:53:26;100849.91;;;13.35;60.91
50268;BME280;36153;50.960;6.220;2023-05-16T02:56:27;100853.16;;;13.02;61.49
50268;BME280;36153;50.960;6.220;2023-05-16T02:59:27;100857.47;;;12.96;61.73
50268;BME280;36153;50.960;6.220;2023-05-16T03:02:27;100869.81;;;13.19;61.06
50268;BME280;36153;50.960;6.220;2023-05-16T03:05:28;100862.66;;;12.89;61.77
50268;BME280;36153;50.960;6.220;2023-05-16T03:08:28;100859.22;;;12.94;61.58
50268;BME280;36153;50.960;6.220;2023-05-16T03:11:28;100858.28;;;12.91;61.28
50268;BME280;36153;50.960;6.220;2023-05-16T03:14:29;100869.56;;;12.80;61.41
50268;BME280;36153;50.960;6.220;2023-05-16T03:17:29;100874.69;;;12.70;61.67
50268;BME280;36153;50.960;6.220;2023-05-16T03:20:30;100881.69;;;12.75;61.84
50268;BME280;36153;50.960;6.220;2023-05-16T03:23:30;100877.44;;;12.90;61.10
50268;BME280;36153;50.960;6.220;2023-05-16T03:26:31;100865.19;;;12.81;61.06
50268;BME280;36153;50.960;6.220;2023-05-16T03:29:31;100874.72;;;12.77;61.28
50268;BME280;36153;50.960;6.220;2023-05-16T03:32:32;100868.59;;;12.72;61.22
50268;BME280;36153;50.960;6.220;2023-05-16T03:35:33;100866.88;;;12.74;61.12
50268;BME280;36153;50.960;6.220;2023-05-16T03:38:34;100877.41;;;12.85;60.46
50268;BME280;36153;50.960;6.220;2023-05-16T03:41:35;100885.81;;;12.52;61.53
50268;BME280;36153;50.960;6.220;2023-05-16T03:44:35;100894.66;;;12.66;60.67
50268;BME280;36153;50.960;6.220;2023-05-16T03:47:36;100894.66;;;12.66;60.84
50268;BME280;36153;50.960;6.220;2023-05-16T03:50:36;100890.16;;;12.50;61.31
50268;BME280;36153;50.960;6.220;2023-05-16T03:53:36;100901.47;;;12.47;61.20
50268;BME280;36153;50.960;6.220;2023-05-16T03:56:37;100901.41;;;12.42;61.52
50268;BME280;36153;50.960;6.220;2023-05-16T03:59:37;100919.69;;;12.45;61.44
50268;BME280;36153;50.960;6.220;2023-05-16T04:02:38;100907.41;;;12.34;61.67
50268;BME280;36153;50.960;6.220;2023-05-16T04:05:42;100912.50;;;12.24;61.83
50268;BME280;36153;50.960;6.220;2023-05-16T04:08:44;100917.06;;;12.44;61.77
50268;BME280;36153;50.960;6.220;2023-05-16T04:11:44;100929.13;;;12.29;62.30
50268;BME280;36153;50.960;6.220;2023-05-16T04:14:45;100924.88;;;12.39;61.72
50268;BME280;36153;50.960;6.220;2023-05-16T04:17:46;100924.06;;;12.46;61.33
50268;BME280;36153;50.960;6.220;2023-05-16T04:20:46;100931.03;;;12.48;61.05
50268;BME280;36153;50.960;6.220;2023-05-16T04:23:46;100937.09;;;12.42;61.59
50268;BME280;36153;50.960;6.220;2023-05-16T04:26:47;100942.41;;;12.51;61.35
50268;BME280;36153;50.960;6.220;2023-05-16T04:29:48;100940.56;;;12.44;61.06
50268;BME280;36153;50.960;6.220;2023-05-16T04:32:48;100952.00;;;12.54;61.26
50268;BME280;36153;50.960;6.220;2023-05-16T04:35:48;100955.47;;;12.53;61.14
50268;BME280;36153;50.960;6.220;2023-05-16T04:38:49;100960.78;;;12.62;61.29
50268;BME280;36153;50.960;6.220;2023-05-16T04:41:50;100959.16;;;12.73;60.46
50268;BME280;36153;50.960;6.220;2023-05-16T04:44:50;100965.44;;;12.91;60.73
50268;BME280;36153;50.960;6.220;2023-05-16T04:47:51;100963.66;;;12.88;60.51
50268;BME280;36153;50.960;6.220;2023-05-16T04:50:52;100970.03;;;13.17;60.15
50268;BME280;36153;50.960;6.220;2023-05-16T04:53:52;100969.22;;;13.27;59.93
50268;BME280;36153;50.960;6.220;2023-05-16T04:56:52;100968.53;;;13.49;59.42
50268;BME280;36153;50.960;6.220;2023-05-16T04:59:53;100974.59;;;13.39;58.84
50268;BME280;36153;50.960;6.220;2023-05-16T05:02:53;100981.44;;;13.28;58.94
50268;BME280;36153;50.960;6.220;2023-05-16T05:05:53;100988.53;;;13.43;59.07
50268;BME280;36153;50.960;6.220;2023-05-16T05:08:54;100981.69;;;13.60;58.50
50268;BME280;36153;50.960;6.220;2023-05-16T05:11:54;100987.09;;;13.85;58.62
50268;BME280;36153;50.960;6.220;2023-05-16T05:14:54;100993.19;;;13.89;58.01
50268;BME280;36153;50.960;6.220;2023-05-16T05:17:55;100989.63;;;13.73;58.29
50268;BME280;36153;50.960;6.220;2023-05-16T05:20:55;100991.31;;;13.66;59.17
50268;BME280;36153;50.960;6.220;2023-05-16T05:23:55;100989.72;;;13.83;59.10
50268;BME280;36153;50.960;6.220;2023-05-16T05:26:56;100999.28;;;13.86;59.22
50268;BME280;36153;50.960;6.220;2023-05-16T05:29:57;101007.28;;;14.14;59.27
50268;BME280;36153;50.960;6.220;2023-05-16T05:32:57;101007.34;;;14.22;58.35
50268;BME280;36153;50.960;6.220;2023-05-16T05:35:57;101001.13;;;14.03;59.45
50268;BME280;36153;50.960;6.220;2023-05-16T05:38:58;101012.63;;;14.31;59.21
50268;BME280;36153;50.960;6.220;2023-05-16T05:41:58;101010.75;;;14.08;59.66
50268;BME280;36153;50.960;6.220;2023-05-16T05:44:59;101016.03;;;14.13;59.49
50268;BME280;36153;50.960;6.220;2023-05-16T05:47:59;101020.56;;;14.51;58.88
50268;BME280;36153;50.960;6.220;2023-05-16T05:51:00;101017.16;;;14.63;58.06
50268;BME280;36153;50.960;6.220;2023-05-16T05:54:01;101023.94;;;14.25;58.80
50268;BME280;36153;50.960;6.220;2023-05-16T05:57:02;101023.13;;;14.40;58.62
50268;BME280;36153;50.960;6.220;2023-05-16T06:00:02;101021.53;;;14.67;57.57
50268;BME280;36153;50.960;6.220;2023-05-16T06:03:04;101025.78;;;14.51;57.77
50268;BME280;36153;50.960;6.220;2023-05-16T06:06:04;101031.19;;;14.87;56.43
50268;BME280;36153;50.960;6.220;2023-05-16T06:09:05;101032.91;;;14.80;55.74
50268;BME280;36153;50.960;6.220;2023-05-16T06:12:13;101034.63;;;14.70;56.83
50268;BME280;36153;50.960;6.220;2023-05-16T06:15:27;101042.59;;;15.23;54.85
50268;BME280;36153;50.960;6.220;2023-05-16T06:19:09;101047.81;;;15.07;54.83
50268;BME280;36153;50.960;6.220;2023-05-16T06:22:13;101042.53;;;14.89;54.38
50268;BME280;36153;50.960;6.220;2023-05-16T06:25:24;101045.22;;;15.09;55.05
50268;BME280;36153;50.960;6.220;2023-05-16T06:28:33;101049.59;;;15.70;53.94
50268;BME280;36153;50.960;6.220;2023-05-16T06:31:36;101046.91;;;16.19;52.63
50268;BME280;36153;50.960;6.220;2023-05-16T06:34:39;101046.91;;;16.15;51.22
50268;BME280;36153;50.960;6.220;2023-05-16T06:37:45;101049.59;;;16.01;52.14
50268;BME280;36153;50.960;6.220;2023-05-16T06:40:45;101058.22;;;16.40;51.68
50268;BME280;36153;50.960;6.220;2023-05-16T06:43:46;101048.69;;;16.10;51.58
50268;BME280;36153;50.960;6.220;2023-05-16T06:46:53;101060.09;;;15.93;52.18
50268;BME280;36153;50.960;6.220;2023-05-16T06:49:54;101053.09;;;15.47;52.63
50268;BME280;36153;50.960;6.220;2023-05-16T06:52:56;101051.34;;;15.65;51.19
50268;BME280;36153;50.960;6.220;2023-05-16T06:55:57;101047.66;;;16.52;50.96
50268;BME280;36153;50.960;6.220;2023-05-16T06:58:57;101056.34;;;16.73;50.86
50268;BME280;36153;50.960;6.220;2023-05-16T07:01:57;101053.00;;;16.28;48.24
50268;BME280;36153;50.960;6.220;2023-05-16T07:04:58;101050.31;;;16.51;49.50
50268;BME280;36153;50.960;6.220;2023-05-16T07:08:02;101059.56;;;17.18;49.06
50268;BME280;36153;50.960;6.220;2023-05-16T07:11:03;101065.75;;;17.13;48.31
50268;BME280;36153;50.960;6.220;2023-05-16T07:14:08;101066.94;;;16.50;48.14
50268;BME280;36153;50.960;6.220;2023-05-16T07:17:12;101060.84;;;16.38;48.51
50268;BME280;36153;50.960;6.220;2023-05-16T07:20:19;101068.44;;;17.03;49.75
50268;BME280;36153;50.960;6.220;2023-05-16T07:23:27;101066.88;;;16.64;48.02
50268;BME280;36153;50.960;6.220;2023-05-16T07:26:28;101066.13;;;16.28;49.09
50268;BME280;36153;50.960;6.220;2023-05-16T07:29:28;101069.59;;;16.41;49.38
50268;BME280;36153;50.960;6.220;2023-05-16T07:32:38;101075.56;;;16.81;47.86
50268;BME280;36153;50.960;6.220;2023-05-16T07:36:03;101078.06;;;17.12;47.26
50268;BME280;36153;50.960;6.220;2023-05-16T07:39:20;101074.78;;;16.56;48.00
50268;BME280;36153;50.960;6.220;2023-05-16T07:42:43;101081.78;;;16.59;48.91
50268;BME280;36153;50.960;6.220;2023-05-16T07:45:44;101080.13;;;16.36;48.37
50268;BME280;36153;50.960;6.220;2023-05-16T07:48:50;101080.06;;;16.59;49.65
50268;BME280;36153;50.960;6.220;2023-05-16T07:51:50;101082.56;;;16.85;48.59
50268;BME280;36153;50.960;6.220;2023-05-16T07:54:51;101076.53;;;16.60;48.67
50268;BME280;36153;50.960;6.220;2023-05-16T07:57:53;101080.91;;;16.63;49.87
50268;BME280;36153;50.960;6.220;2023-05-16T08:00:54;101085.16;;;16.95;48.30
50268;BME280;36153;50.960;6.220;2023-05-16T08:03:54;101088.44;;;17.31;48.57
50268;BME280;36153;50.960;6.220;2023-05-16T08:06:54;101078.59;;;17.61;46.96
50268;BME280;36153;50.960;6.220;2023-05-16T08:09:55;101073.69;;;18.15;45.69
50268;BME280;36153;50.960;6.220;2023-05-16T08:12:55;101077.66;;;18.52;44.77
50268;BME280;36153;50.960;6.220;2023-05-16T08:15:56;101076.53;;;18.71;41.27
50268;BME280;36153;50.960;6.220;2023-05-16T08:18:57;101077.81;;;19.66;42.86
50268;BME280;36153;50.960;6.220;2023-05-16T08:21:57;101084.72;;;19.73;42.09
50268;BME280;36153;50.960;6.220;2023-05-16T08:24:58;101082.94;;;17.62;43.19
50268;BME280;36153;50.960;6.220;2023-05-16T08:27:59;101086.94;;;16.91;44.64
50268;BME280;36153;50.960;6.220;2023-05-16T08:31:03;101089.16;;;17.54;42.95
50268;BME280;36153;50.960;6.220;2023-05-16T08:34:03;101081.94;;;17.75;43.21
50268;BME280;36153;50.960;6.220;2023-05-16T08:37:05;101076.66;;;18.64;43.38
50268;BME280;36153;50.960;6.220;2023-05-16T08:40:08;101080.66;;;20.05;42.55
50268;BME280;36153;50.960;6.220;2023-05-16T08:43:09;101077.50;;;19.30;39.81
50268;BME280;36153;50.960;6.220;2023-05-16T08:46:10;101078.50;;;17.67;42.01
50268;BME280;36153;50.960;6.220;2023-05-16T08:49:11;101075.78;;;17.78;42.69
50268;BME280;36153;50.960;6.220;2023-05-16T08:52:12;101081.38;;;18.34;42.88
50268;BME280;36153;50.960;6.220;2023-05-16T08:55:13;101078.69;;;18.40;38.50
50268;BME280;36153;50.960;6.220;2023-05-16T08:58:15;101086.56;;;18.43;41.45
50268;BME280;36153;50.960;6.220;2023-05-16T09:01:17;101074.56;;;18.86;41.17
50268;BME280;36153;50.960;6.220;2023-05-16T09:04:17;101081.16;;;19.21;39.45
50268;BME280;36153;50.960;6.220;2023-05-16T09:07:18;101082.53;;;19.45;39.47
50268;BME280;36153;50.960;6.220;2023-05-16T09:10:19;101073.31;;;20.22;37.71
50268;BME280;36153;50.960;6.220;2023-05-16T09:13:20;101078.16;;;19.97;39.39
50268;BME280;36153;50.960;6.220;2023-05-16T09:16:20;101081.03;;;19.28;41.04
50268;BME280;36153;50.960;6.220;2023-05-16T09:19:21;101083.28;;;18.97;39.95
50268;BME280;36153;50.960;6.220;2023-05-16T09:22:22;101071.56;;;19.15;40.32
50268;BME280;36153;50.960;6.220;2023-05-16T09:25:24;101065.59;;;19.01;39.62
50268;BME280;36153;50.960;6.220;2023-05-16T09:28:25;101066.41;;;18.39;41.08
50268;BME280;36153;50.960;6.220;2023-05-16T09:31:27;101072.66;;;18.29;41.14
50268;BME280;36153;50.960;6.220;2023-05-16T09:34:42;101072.25;;;18.63;39.96
50268;BME280;36153;50.960;6.220;2023-05-16T09:37:47;101076.44;;;19.43;38.02
50268;BME280;36153;50.960;6.220;2023-05-16T09:40:49;101067.47;;;20.50;37.16
50268;BME280;36153;50.960;6.220;2023-05-16T09:43:49;101070.19;;;21.64;36.73
50268;BME280;36153;50.960;6.220;2023-05-16T09:46:53;101069.53;;;21.17;33.64
50268;BME280;36153;50.960;6.220;2023-05-16T09:49:53;101072.63;;;20.09;37.12
50268;BME280;36153;50.960;6.220;2023-05-16T09:52:53;101074.63;;;19.98;38.34
50268;BME280;36153;50.960;6.220;2023-05-16T09:56:11;101074.59;;;18.89;39.92
50268;BME280;36153;50.960;6.220;2023-05-16T09:59:13;101077.91;;;19.02;39.65
50268;BME280;36153;50.960;6.220;2023-05-16T10:02:14;101070.78;;;18.40;38.43
50268;BME280;36153;50.960;6.220;2023-05-16T10:05:15;101074.56;;;19.48;38.85
50268;BME280;36153;50.960;6.220;2023-05-16T10:08:19;101070.25;;;19.95;36.20
50268;BME280;36153;50.960;6.220;2023-05-16T10:11:20;101069.97;;;19.61;36.79
50268;BME280;36153;50.960;6.220;2023-05-16T10:14:23;101072.22;;;18.66;38.54
50268;BME280;36153;50.960;6.220;2023-05-16T10:17:26;101078.41;;;18.63;39.00
50268;BME280;36153;50.960;6.220;2023-05-16T10:20:27;101073.84;;;18.77;39.99
50268;BME280;36153;50.960;6.220;2023-05-16T10:23:31;101079.00;;;18.85;38.43
50268;BME280;36153;50.960;6.220;2023-05-16T10:26:32;101070.69;;;18.48;38.13
50268;BME280;36153;50.960;6.220;2023-05-16T10:29:33;101075.91;;;19.74;37.23
50268;BME280;36153;50.960;6.220;2023-05-16T10:32:35;101061.31;;;20.90;34.46
50268;BME280;36153;50.960;6.220;2023-05-16T10:35:36;101075.38;;;20.92;34.58
50268;BME280;36153;50.960;6.220;2023-05-16T10:38:37;101069.31;;;20.00;35.43
50268;BME280;36153;50.960;6.220;2023-05-16T10:41:39;101069.19;;;19.54;37.09
50268;BME280;36153;50.960;6.220;2023-05-16T10:44:39;101074.91;;;18.63;36.73
50268;BME280;36153;50.960;6.220;2023-05-16T10:47:39;101082.66;;;18.75;37.77
50268;BME280;36153;50.960;6.220;2023-05-16T10:50:44;101065.22;;;19.27;37.37
50268;BME280;36153;50.960;6.220;2023-05-16T10:53:45;101060.91;;;20.24;36.58
50268;BME280;36153;50.960;6.220;2023-05-16T10:56:54;101062.25;;;20.89;33.65
50268;BME280;36153;50.960;6.220;2023-05-16T10:59:56;101058.91;;;21.19;34.94
50268;BME280;36153;50.960;6.220;2023-05-16T11:03:21;101066.81;;;21.92;32.30
50268;BME280;36153;50.960;6.220;2023-05-16T11:06:25;101059.59;;;21.64;32.88
50268;BME280;36153;50.960;6.220;2023-05-16T11:09:26;101057.63;;;21.35;33.67
50268;BME280;36153;50.960;6.220;2023-05-16T11:12:35;101057.44;;;20.64;33.76
50268;BME280;36153;50.960;6.220;2023-05-16T11:15:36;101046.00;;;20.62;33.26
50268;BME280;36153;50.960;6.220;2023-05-16T11:18:49;101048.75;;;20.58;34.72
50268;BME280;36153;50.960;6.220;2023-05-16T11:22:09;101054.13;;;21.71;32.30
50268;BME280;36153;50.960;6.220;2023-05-16T11:25:10;101046.31;;;21.97;31.59
50268;BME280;36153;50.960;6.220;2023-05-16T11:28:12;101052.44;;;22.32;31.89
50268;BME280;36153;50.960;6.220;2023-05-16T11:31:13;101046.31;;;23.99;31.59
50268;BME280;36153;50.960;6.220;2023-05-16T11:34:13;101041.88;;;23.99;28.73
50268;BME280;36153;50.960;6.220;2023-05-16T11:37:14;101049.88;;;23.19;30.73
50268;BME280;36153;50.960;6.220;2023-05-16T11:40:16;101056.94;;;21.97;31.38
50268;BME280;36153;50.960;6.220;2023-05-16T11:43:17;101058.25;;;20.70;33.46
50268;BME280;36153;50.960;6.220;2023-05-16T11:46:18;101065.38;;;20.64;34.46
50268;BME280;36153;50.960;6.220;2023-05-16T11:49:19;101064.13;;;20.39;34.29
50268;BME280;36153;50.960;6.220;2023-05-16T11:52:20;101069.50;;;20.36;34.34
50268;BME280;36153;50.960;6.220;2023-05-16T11:55:23;101080.06;;;19.34;35.84
50268;BME280;36153;50.960;6.220;2023-05-16T11:58:24;101071.72;;;19.04;36.71
50268;BME280;36153;50.960;6.220;2023-05-16T12:01:30;101068.56;;;18.76;37.73
50268;BME280;36153;50.960;6.220;2023-05-16T12:04:31;101075.81;;;19.78;37.15
50268;BME280;36153;50.960;6.220;2023-05-16T12:07:31;101067.81;;;20.32;36.40
50268;BME280;36153;50.960;6.220;2023-05-16T12:10:31;101072.94;;;21.22;35.10
50268;BME280;36153;50.960;6.220;2023-05-16T12:13:35;101061.38;;;21.97;34.20
50268;BME280;36153;50.960;6.220;2023-05-16T12:16:36;101058.84;;;21.92;30.68
50268;BME280;36153;50.960;6.220;2023-05-16T12:19:37;101057.50;;;22.42;31.26
50268;BME280;36153;50.960;6.220;2023-05-16T12:22:42;101059.25;;;21.41;30.42
50268;BME280;36153;50.960;6.220;2023-05-16T12:25:46;101052.63;;;21.23;30.07
50268;BME280;36153;50.960;6.220;2023-05-16T12:28:52;101042.63;;;22.05;31.07
50268;BME280;36153;50.960;6.220;2023-05-16T12:31:55;101050.19;;;22.80;31.33
50268;BME280;36153;50.960;6.220;2023-05-16T12:34:55;101045.69;;;23.39;29.38
50268;BME280;36153;50.960;6.220;2023-05-16T12:37:56;101039.75;;;22.74;27.69
50268;BME280;36153;50.960;6.220;2023-05-16T12:40:57;101041.22;;;22.84;28.05
50268;BME280;36153;50.960;6.220;2023-05-16T12:44:15;101046.50;;;23.14;28.29
50268;BME280;36153;50.960;6.220;2023-05-16T12:47:22;101051.69;;;22.89;28.77
50268;BME280;36153;50.960;6.220;2023-05-16T12:50:25;101051.75;;;22.57;29.40
50268;BME280;36153;50.960;6.220;2023-05-16T12:53:25;101059.03;;;20.73;30.61
50268;BME280;36153;50.960;6.220;2023-05-16T12:56:28;101055.53;;;21.84;29.48
50268;BME280;36153;50.960;6.220;2023-05-16T12:59:28;101048.88;;;22.65;28.73
50268;BME280;36153;50.960;6.220;2023-05-16T13:02:30;101059.38;;;23.53;28.09
50268;BME280;36153;50.960;6.220;2023-05-16T13:05:30;101055.91;;;23.51;28.10
50268;BME280;36153;50.960;6.220;2023-05-16T13:11:31;101056.34;;;23.09;28.13
50268;BME280;36153;50.960;6.220;2023-05-16T13:14:31;101054.41;;;22.87;29.06
50268;BME280;36153;50.960;6.220;2023-05-16T13:17:36;101049.91;;;21.96;29.80
50268;BME280;36153;50.960;6.220;2023-05-16T13:20:36;101067.13;;;21.44;30.60
50268;BME280;36153;50.960;6.220;2023-05-16T13:23:38;101067.75;;;21.18;29.10
50268;BME280;36153;50.960;6.220;2023-05-16T13:26:38;101069.97;;;20.97;30.91
50268;BME280;36153;50.960;6.220;2023-05-16T13:29:38;101070.00;;;20.55;31.35
50268;BME280;36153;50.960;6.220;2023-05-16T13:32:40;101069.75;;;20.67;31.82
50268;BME280;36153;50.960;6.220;2023-05-16T13:35:40;101068.00;;;21.07;31.63
50268;BME280;36153;50.960;6.220;2023-05-16T13:38:41;101064.59;;;21.02;32.09
50268;BME280;36153;50.960;6.220;2023-05-16T13:41:41;101062.09;;;22.37;31.27
50268;BME280;36153;50.960;6.220;2023-05-16T13:44:42;101065.72;;;23.22;30.52
50268;BME280;36153;50.960;6.220;2023-05-16T13:47:43;101064.13;;;22.87;30.26
50268;BME280;36153;50.960;6.220;2023-05-16T13:50:44;101068.00;;;22.45;30.07
50268;BME280;36153;50.960;6.220;2023-05-16T13:53:44;101071.19;;;21.93;30.92
50268;BME280;36153;50.960;6.220;2023-05-16T13:56:45;101067.53;;;21.97;30.80
50268;BME280;36153;50.960;6.220;2023-05-16T13:59:48;101071.97;;;21.62;32.33
50268;BME280;36153;50.960;6.220;2023-05-16T14:02:50;101070.50;;;21.52;32.16
50268;BME280;36153;50.960;6.220;2023-05-16T14:05:50;101074.88;;;21.88;31.43
50268;BME280;36153;50.960;6.220;2023-05-16T14:08:58;101086.19;;;22.27;31.95
50268;BME280;36153;50.960;6.220;2023-05-16T14:12:00;101076.59;;;22.84;31.18
50268;BME280;36153;50.960;6.220;2023-05-16T14:15:02;101079.19;;;23.69;30.79
50268;BME280;36153;50.960;6.220;2023-05-16T14:18:02;101083.41;;;23.23;30.83
50268;BME280;36153;50.960;6.220;2023-05-16T14:21:06;101078.31;;;24.21;29.94
50268;BME280;36153;50.960;6.220;2023-05-16T14:24:07;101080.41;;;23.86;30.18
50268;BME280;36153;50.960;6.220;2023-05-16T14:27:08;101091.88;;;23.88;31.47
50268;BME280;36153;50.960;6.220;2023-05-16T14:30:09;101090.75;;;23.42;30.46
50268;BME280;36153;50.960;6.220;2023-05-16T14:33:30;101090.94;;;22.47;29.96
50268;BME280;36153;50.960;6.220;2023-05-16T14:36:37;101095.94;;;21.58;32.20
50268;BME280;36153;50.960;6.220;2023-05-16T14:39:38;101085.25;;;21.23;32.38
50268;BME280;36153;50.960;6.220;2023-05-16T14:42:38;101096.06;;;21.14;31.67
50268;BME280;36153;50.960;6.220;2023-05-16T14:45:39;101089.25;;;21.04;33.31
50268;BME280;36153;50.960;6.220;2023-05-16T14:48:39;101099.00;;;21.02;33.35
50268;BME280;36153;50.960;6.220;2023-05-16T14:51:40;101093.13;;;20.87;33.41
50268;BME280;36153;50.960;6.220;2023-05-16T14:54:44;101096.72;;;21.24;32.41
50268;BME280;36153;50.960;6.220;2023-05-16T14:57:44;101105.44;;;21.67;31.97
50268;BME280;36153;50.960;6.220;2023-05-16T15:00:44;101101.72;;;21.36;31.42
50268;BME280;36153;50.960;6.220;2023-05-16T15:03:45;101098.75;;;21.50;31.89
50268;BME280;36153;50.960;6.220;2023-05-16T15:06:45;101106.19;;;20.96;33.07
50268;BME280;36153;50.960;6.220;2023-05-16T15:09:46;101110.69;;;20.91;32.51
50268;BME280;36153;50.960;6.220;2023-05-16T15:12:46;101109.69;;;20.53;33.39
50268;BME280;36153;50.960;6.220;2023-05-16T15:15:47;101113.53;;;20.37;33.86
50268;BME280;36153;50.960;6.220;2023-05-16T15:18:47;101116.03;;;20.90;34.04
50268;BME280;36153;50.960;6.220;2023-05-16T15:21:47;101111.78;;;20.83;33.20
50268;BME280;36153;50.960;6.220;2023-05-16T15:24:48;101120.00;;;20.67;33.94
50268;BME280;36153;50.960;6.220;2023-05-16T15:27:48;101122.97;;;20.52;33.54
50268;BME280;36153;50.960;6.220;2023-05-16T15:30:50;101125.00;;;19.87;34.79
50268;BME280;36153;50.960;6.220;2023-05-16T15:33:50;101128.16;;;20.08;34.61
50268;BME280;36153;50.960;6.220;2023-05-16T15:36:50;101121.78;;;20.65;33.91
50268;BME280;36153;50.960;6.220;2023-05-16T15:39:51;101124.91;;;21.26;34.27
50268;BME280;36153;50.960;6.220;2023-05-16T15:42:52;101131.19;;;21.22;33.75
50268;BME280;36153;50.960;6.220;2023-05-16T15:45:52;101142.66;;;20.82;34.07
50268;BME280;36153;50.960;6.220;2023-05-16T15:48:53;101129.13;;;20.96;33.35
50268;BME280;36153;50.960;6.220;2023-05-16T15:51:53;101137.91;;;20.98;34.02
50268;BME280;36153;50.960;6.220;2023-05-16T15:54:54;101142.66;;;20.35;33.81
50268;BME280;36153;50.960;6.220;2023-05-16T15:57:55;101145.56;;;20.21;34.02
50268;BME280;36153;50.960;6.220;2023-05-16T16:00:57;101135.84;;;20.22;33.96